Time;durP1;ratioP1;P1;durP2;ratioP2;P2;SDS_P1;SDS_P2;PMS_P1;PMS_P2;Temp;Humidity;BMP_temperature;BMP_pressure;BME280_temperature;BME280_humidity;BME280_pressure;Samples;Min_cycle;Max_cycle;Signal;HPM_P1;HPM_P2
2023/06/26 00:00:32;;;;;;;8.05;5.13;;;24.40;97.10;;;;;;5082762;28;20032;-71
2023/06/26 00:02:58;;;;;;;9.38;5.07;;;24.50;97.10;;;;;;5079836;28;20052;-70
2023/06/26 00:05:23;;;;;;;8.85;4.47;;;24.50;97.20;;;;;;5075030;28;20060;-71
2023/06/26 00:07:49;;;;;;;8.77;4.68;;;24.40;97.00;;;;;;5082035;28;20093;-69
2023/06/26 00:10:14;;;;;;;11.10;4.93;;;24.30;97.40;;;;;;5085758;28;20042;-71
2023/06/26 00:12:40;;;;;;;9.88;5.18;;;24.30;98.00;;;;;;5076012;28;20028;-71
2023/06/26 00:15:07;;;;;;;9.10;5.40;;;24.20;98.80;;;;;;5080801;28;20077;-70
2023/06/26 00:17:36;;;;;;;9.63;5.65;;;24.10;99.90;;;;;;5077822;28;20032;-68
2023/06/26 00:20:05;;;;;;;12.40;6.20;;;23.90;99.90;;;;;;5078716;28;20063;-70
2023/06/26 00:22:31;;;;;;;11.70;5.63;;;23.80;99.90;;;;;;5073403;28;20040;-71
2023/06/26 00:24:57;;;;;;;11.75;5.90;;;23.60;99.90;;;;;;5079095;28;20155;-71
2023/06/26 00:27:22;;;;;;;11.35;5.95;;;23.40;99.90;;;;;;5082943;28;20495;-70
2023/06/26 00:29:48;;;;;;;13.82;6.35;;;23.30;99.90;;;;;;5070818;28;20448;-71
2023/06/26 00:32:13;;;;;;;12.23;6.15;;;23.10;99.90;;;;;;5063180;28;20039;-71
2023/06/26 00:34:39;;;;;;;11.38;5.88;;;22.90;99.90;;;;;;5089275;28;20101;-69
2023/06/26 00:37:05;;;;;;;10.35;5.78;;;22.80;99.90;;;;;;5082935;28;20036;-70
2023/06/26 00:39:30;;;;;;;13.35;5.70;;;22.60;99.90;;;;;;5082400;28;20044;-69
2023/06/26 00:41:56;;;;;;;13.18;5.72;;;22.50;99.90;;;;;;5079813;28;20028;-71
2023/06/26 00:44:21;;;;;;;14.45;5.65;;;22.30;99.90;;;;;;5084686;28;20126;-69
2023/06/26 00:46:47;;;;;;;10.93;5.65;;;22.30;99.90;;;;;;5082026;28;20024;-70
2023/06/26 00:49:13;;;;;;;12.32;5.90;;;22.20;99.90;;;;;;5076866;28;20089;-70
2023/06/26 00:51:39;;;;;;;12.88;5.10;;;22.10;99.90;;;;;;5079661;28;20470;-70
2023/06/26 00:54:05;;;;;;;13.35;5.60;;;21.90;99.90;;;;;;5085173;28;20043;-70
2023/06/26 00:56:31;;;;;;;15.13;7.15;;;21.80;99.90;;;;;;5077590;28;20039;-70
2023/06/26 00:58:57;;;;;;;15.63;5.63;;;21.80;99.90;;;;;;5082678;28;20027;-70
2023/06/26 01:01:25;;;;;;;15.90;5.50;;;21.70;99.90;;;;;;5078042;28;20050;-69
2023/06/26 01:03:52;;;;;;;13.15;6.30;;;21.60;99.90;;;;;;5082334;28;20123;-71
2023/06/26 01:06:19;;;;;;;13.73;5.43;;;21.60;99.90;;;;;;5084584;28;20111;-70
2023/06/26 01:08:46;;;;;;;16.90;5.90;;;21.40;99.90;;;;;;5083888;28;20026;-69
2023/06/26 01:11:12;;;;;;;16.05;6.55;;;21.30;99.90;;;;;;5075834;28;20074;-71
2023/06/26 01:13:39;;;;;;;16.20;5.80;;;21.30;99.90;;;;;;5066315;28;20032;-69
2023/06/26 01:16:05;;;;;;;16.00;5.35;;;21.20;99.90;;;;;;5081677;28;20021;-70
2023/06/26 01:18:32;;;;;;;21.00;6.28;;;21.10;99.90;;;;;;5078419;28;20045;-70
2023/06/26 01:21:01;;;;;;;15.63;5.95;;;21.00;99.90;;;;;;5074788;28;20860;-70
2023/06/26 01:23:43;;;;;;;19.15;6.32;;;21.00;99.90;;;;;;5079020;28;20114;-71
2023/06/26 01:26:22;;;;;;;22.10;6.68;;;20.90;99.90;;;;;;5077271;28;20028;-71
2023/06/26 01:28:50;;;;;;;21.27;5.95;;;20.90;99.90;;;;;;5080560;28;20037;-69
2023/06/26 01:31:17;;;;;;;15.55;5.93;;;20.90;99.90;;;;;;5069199;28;20384;-71
2023/06/26 01:33:43;;;;;;;15.02;5.75;;;20.90;99.90;;;;;;5081897;28;20070;-68
2023/06/26 01:36:09;;;;;;;20.35;6.18;;;20.90;99.90;;;;;;5081339;28;20099;-69
2023/06/26 01:38:36;;;;;;;18.33;5.57;;;20.80;99.90;;;;;;5076548;28;20042;-70
2023/06/26 01:41:02;;;;;;;19.45;6.88;;;20.80;99.90;;;;;;5069501;28;20226;-69
2023/06/26 01:43:54;;;;;;;18.92;6.25;;;20.80;99.90;;;;;;5062009;28;20036;-70
2023/06/26 01:46:30;;;;;;;25.58;6.28;;;20.80;99.90;;;;;;5067322;28;20033;-70
2023/06/26 01:49:03;;;;;;;22.85;6.75;;;20.90;99.90;;;;;;5072067;28;20037;-71
2023/06/26 01:51:32;;;;;;;25.63;7.45;;;20.80;99.90;;;;;;5073510;28;20032;-70
2023/06/26 01:54:00;;;;;;;24.15;7.25;;;20.80;99.90;;;;;;5065776;28;20024;-70
2023/06/26 01:56:27;;;;;;;20.52;6.68;;;20.80;99.90;;;;;;5064770;28;20032;-70
2023/06/26 01:58:54;;;;;;;28.48;6.85;;;20.70;99.90;;;;;;5072623;28;20045;-73
2023/06/26 02:01:21;;;;;;;20.85;6.47;;;20.70;99.90;;;;;;5067695;28;20036;-69
2023/06/26 02:03:48;;;;;;;19.63;7.03;;;20.70;99.90;;;;;;5073289;28;20038;-71
2023/06/26 02:06:14;;;;;;;24.08;6.80;;;20.60;99.90;;;;;;5065147;28;20468;-71
2023/06/26 02:08:46;;;;;;;24.15;6.57;;;20.60;99.90;;;;;;5069696;28;20036;-71
2023/06/26 02:11:12;;;;;;;25.70;7.35;;;20.60;99.90;;;;;;5067424;28;20029;-69
2023/06/26 02:13:37;;;;;;;21.65;6.55;;;20.60;99.90;;;;;;5084580;28;20397;-71
2023/06/26 02:16:03;;;;;;;25.15;6.60;;;20.60;99.90;;;;;;5071701;28;20491;-69
2023/06/26 02:18:29;;;;;;;25.80;7.15;;;20.50;99.90;;;;;;5071293;28;20032;-70
2023/06/26 02:20:54;;;;;;;21.83;6.60;;;20.50;99.90;;;;;;5071119;28;20056;-69
2023/06/26 02:23:20;;;;;;;25.60;6.57;;;20.60;99.90;;;;;;5087532;28;20031;-69
2023/06/26 02:25:45;;;;;;;22.25;6.93;;;20.50;99.90;;;;;;5072566;28;20028;-70
2023/06/26 02:28:11;;;;;;;23.42;7.13;;;20.50;99.90;;;;;;5077039;28;20040;-70
2023/06/26 02:30:36;;;;;;;23.48;6.50;;;20.50;99.90;;;;;;5055768;28;20033;-70
2023/06/26 02:33:02;;;;;;;25.55;7.13;;;20.40;99.90;;;;;;5067161;28;20025;-69
2023/06/26 02:35:27;;;;;;;15.27;5.97;;;20.40;99.90;;;;;;5073422;28;20027;-70
2023/06/26 02:37:53;;;;;;;23.30;6.75;;;20.30;99.90;;;;;;5071962;28;20020;-69
2023/06/26 02:40:18;;;;;;;19.17;6.00;;;20.30;99.90;;;;;;5074071;28;20534;-69
2023/06/26 02:42:44;;;;;;;24.00;7.10;;;20.30;99.90;;;;;;5064623;28;20460;-68
2023/06/26 02:45:10;;;;;;;18.20;5.93;;;20.30;99.90;;;;;;5065604;28;20183;-70
2023/06/26 02:47:39;;;;;;;16.67;5.68;;;20.30;99.90;;;;;;5075103;28;20029;-71
2023/06/26 02:50:06;;;;;;;16.30;5.20;;;20.30;99.90;;;;;;5080215;28;20051;-70
2023/06/26 02:52:32;;;;;;;19.15;5.53;;;20.40;99.90;;;;;;5082240;28;20039;-70
2023/06/26 02:54:57;;;;;;;17.55;5.30;;;20.40;99.90;;;;;;5084998;28;20373;-70
2023/06/26 02:57:23;;;;;;;16.60;5.60;;;20.40;99.90;;;;;;5062397;28;20036;-70
2023/06/26 02:59:48;;;;;;;13.82;4.50;;;20.40;99.90;;;;;;5092420;28;20476;-69
2023/06/26 03:02:14;;;;;;;14.75;5.30;;;20.30;99.90;;;;;;5063071;28;20533;-70
2023/06/26 03:04:40;;;;;;;15.30;5.25;;;20.20;99.90;;;;;;5067484;28;20020;-70
2023/06/26 03:07:05;;;;;;;16.00;4.72;;;20.20;99.90;;;;;;5089477;28;20017;-71
2023/06/26 03:09:31;;;;;;;14.10;4.78;;;20.10;99.90;;;;;;5081169;28;20059;-71
2023/06/26 03:11:56;;;;;;;13.48;5.18;;;20.10;99.90;;;;;;5069892;28;20028;-70
2023/06/26 03:14:22;;;;;;;16.67;5.10;;;20.00;99.90;;;;;;5098486;28;20456;-70
2023/06/26 03:16:47;;;;;;;13.23;4.97;;;19.90;99.90;;;;;;5095024;28;20032;-69
2023/06/26 03:19:13;;;;;;;12.48;4.85;;;19.90;99.90;;;;;;5098388;28;20082;-70
2023/06/26 03:21:39;;;;;;;17.20;4.82;;;19.80;99.90;;;;;;5074565;28;20468;-69
2023/06/26 03:24:05;;;;;;;11.65;4.90;;;19.80;99.90;;;;;;5084178;28;20020;-69
2023/06/26 03:26:30;;;;;;;11.90;4.30;;;19.80;99.90;;;;;;5090562;28;20429;-71
2023/06/26 03:28:56;;;;;;;17.65;4.68;;;19.80;99.90;;;;;;5074221;28;20032;-70
2023/06/26 03:31:22;;;;;;;10.25;4.70;;;19.80;99.90;;;;;;5091551;28;20024;-70
2023/06/26 03:33:47;;;;;;;11.48;4.28;;;19.80;99.90;;;;;;5081490;28;20043;-69
2023/06/26 03:36:13;;;;;;;13.13;4.32;;;19.90;99.90;;;;;;5090354;28;20064;-69
2023/06/26 03:38:38;;;;;;;8.98;3.90;;;19.90;99.90;;;;;;5088545;28;20043;-72
2023/06/26 03:41:04;;;;;;;12.27;4.25;;;19.90;99.90;;;;;;5066210;28;20033;-70
2023/06/26 03:43:29;;;;;;;13.65;4.07;;;19.90;99.90;;;;;;5065374;28;20048;-68
2023/06/26 03:45:55;;;;;;;9.93;4.25;;;19.90;99.90;;;;;;5079915;28;20081;-69
2023/06/26 03:48:21;;;;;;;15.55;4.25;;;19.90;99.90;;;;;;5077799;28;20056;-71
2023/06/26 03:50:46;;;;;;;12.63;3.75;;;19.80;99.90;;;;;;5073908;28;20032;-68
2023/06/26 03:53:12;;;;;;;11.43;3.95;;;19.80;99.90;;;;;;5065140;28;20124;-69
2023/06/26 03:55:38;;;;;;;13.00;4.18;;;19.70;99.90;;;;;;5089785;28;20060;-70
2023/06/26 03:58:04;;;;;;;12.43;3.97;;;19.60;99.90;;;;;;5080443;28;20012;-69
2023/06/26 04:00:30;;;;;;;11.65;4.22;;;19.60;99.90;;;;;;5085029;28;20033;-70
2023/06/26 04:02:55;;;;;;;12.38;4.38;;;19.60;99.90;;;;;;5087734;28;20099;-67
2023/06/26 04:05:21;;;;;;;14.20;3.92;;;19.60;99.90;;;;;;5074297;28;20100;-71
2023/06/26 04:07:50;;;;;;;12.02;4.03;;;19.60;99.90;;;;;;5090885;28;20384;-69
2023/06/26 04:10:16;;;;;;;13.23;4.85;;;19.60;99.90;;;;;;5082504;28;20020;-70
2023/06/26 04:12:42;;;;;;;11.85;3.70;;;19.50;99.90;;;;;;5083196;28;20099;-69
2023/06/26 04:15:08;;;;;;;15.15;3.75;;;19.50;99.90;;;;;;5078889;28;20060;-68
2023/06/26 04:17:33;;;;;;;13.57;4.40;;;19.50;99.90;;;;;;5091237;28;20509;-70
2023/06/26 04:19:59;;;;;;;12.70;3.97;;;19.50;99.90;;;;;;5077139;28;20032;-69
2023/06/26 04:22:25;;;;;;;13.10;4.65;;;19.50;99.90;;;;;;5073202;28;20047;-69
2023/06/26 04:24:51;;;;;;;11.25;4.25;;;19.50;99.90;;;;;;5081623;28;20032;-70
2023/06/26 04:27:17;;;;;;;9.88;3.92;;;19.50;99.90;;;;;;5090519;28;20033;-69
2023/06/26 04:29:43;;;;;;;9.80;3.50;;;19.50;99.90;;;;;;5077585;28;20024;-68
2023/06/26 04:32:09;;;;;;;13.15;3.63;;;19.60;99.90;;;;;;5087383;28;20025;-69
2023/06/26 04:34:36;;;;;;;12.18;4.15;;;19.60;99.90;;;;;;5076295;28;20125;-70
2023/06/26 04:37:04;;;;;;;10.55;3.30;;;19.70;99.90;;;;;;5082234;28;20028;-70
2023/06/26 04:39:30;;;;;;;7.13;3.38;;;19.80;99.90;;;;;;5076888;28;20041;-69
2023/06/26 04:41:55;;;;;;;10.07;3.22;;;19.80;99.90;;;;;;5087814;28;20031;-69
2023/06/26 04:44:21;;;;;;;11.27;3.08;;;19.80;99.90;;;;;;5085712;28;20325;-68
2023/06/26 04:46:46;;;;;;;12.45;3.63;;;19.90;99.90;;;;;;5085710;28;20032;-70
2023/06/26 04:49:12;;;;;;;10.25;3.10;;;19.90;99.90;;;;;;5078018;28;20021;-70
2023/06/26 04:51:40;;;;;;;10.02;3.22;;;19.90;99.90;;;;;;5058986;28;20032;-69
2023/06/26 04:54:07;;;;;;;6.53;2.97;;;20.00;99.90;;;;;;5088028;28;20353;-70
2023/06/26 04:56:32;;;;;;;8.15;2.97;;;20.00;99.90;;;;;;5083925;28;20108;-69
2023/06/26 04:58:58;;;;;;;13.65;3.92;;;20.00;99.90;;;;;;5080284;28;20455;-69
2023/06/26 05:01:24;;;;;;;8.63;3.50;;;20.00;99.90;;;;;;5089977;28;20542;-69
2023/06/26 05:03:49;;;;;;;10.18;4.07;;;20.10;99.90;;;;;;5076495;28;20419;-68
2023/06/26 05:06:15;;;;;;;10.20;3.75;;;20.10;99.90;;;;;;5064244;28;20476;-69
2023/06/26 05:08:40;;;;;;;10.32;3.72;;;20.10;99.90;;;;;;5069375;28;20464;-71
2023/06/26 05:11:06;;;;;;;10.38;3.47;;;20.10;99.90;;;;;;5086986;28;20023;-69
2023/06/26 05:13:32;;;;;;;11.45;3.60;;;20.20;99.90;;;;;;5076671;28;20059;-69
2023/06/26 05:15:57;;;;;;;8.02;3.58;;;20.30;99.90;;;;;;5087527;28;20112;-69
2023/06/26 05:18:23;;;;;;;13.05;3.38;;;20.40;99.90;;;;;;5080375;28;20044;-69
2023/06/26 05:20:48;;;;;;;12.07;4.28;;;20.40;99.90;;;;;;5084366;28;20111;-72
2023/06/26 05:23:16;;;;;;;9.32;3.42;;;20.60;99.90;;;;;;5077521;28;20055;-70
2023/06/26 05:25:42;;;;;;;11.82;4.65;;;20.60;99.90;;;;;;5074858;28;20055;-71
2023/06/26 05:28:10;;;;;;;11.85;4.53;;;20.70;99.90;;;;;;5086328;28;20048;-69
2023/06/26 05:30:36;;;;;;;8.65;3.45;;;21.10;99.90;;;;;;5076118;28;20059;-68
2023/06/26 05:33:02;;;;;;;11.13;3.45;;;21.60;99.90;;;;;;5086854;28;20056;-73
2023/06/26 05:35:32;;;;;;;8.05;3.17;;;22.10;99.90;;;;;;5061064;28;20025;-69
2023/06/26 05:37:59;;;;;;;9.02;3.38;;;22.70;99.90;;;;;;5087959;28;20013;-70
2023/06/26 05:40:25;;;;;;;11.05;3.15;;;23.20;99.90;;;;;;5081139;28;20578;-70
2023/06/26 05:42:51;;;;;;;14.60;3.53;;;23.70;99.90;;;;;;5079128;28;20034;-69
2023/06/26 05:45:16;;;;;;;10.52;3.50;;;24.10;99.90;;;;;;5088655;28;20043;-71
2023/06/26 05:47:42;;;;;;;9.13;3.50;;;24.40;99.90;;;;;;5076185;28;20380;-69
2023/06/26 05:50:10;;;;;;;10.73;3.58;;;24.60;99.90;;;;;;5076319;28;20024;-69
2023/06/26 05:52:36;;;;;;;10.88;3.13;;;24.90;99.90;;;;;;5082127;28;20031;-69
2023/06/26 05:55:02;;;;;;;9.32;3.28;;;25.00;99.90;;;;;;5086816;28;20028;-69
2023/06/26 05:57:29;;;;;;;10.98;2.83;;;25.20;99.90;;;;;;5075935;28;20052;-69
2023/06/26 05:59:55;;;;;;;10.70;2.72;;;25.40;99.90;;;;;;5087222;28;20043;-70
2023/06/26 06:02:21;;;;;;;13.60;2.90;;;25.20;99.90;;;;;;5092481;28;20024;-71
2023/06/26 06:04:47;;;;;;;10.50;3.40;;;25.30;99.90;;;;;;5080506;28;20039;-70
2023/06/26 06:07:13;;;;;;;9.23;3.33;;;25.60;99.90;;;;;;5087694;28;20026;-71
2023/06/26 06:09:39;;;;;;;8.93;2.85;;;26.00;99.90;;;;;;5075670;28;20060;-70
2023/06/26 06:12:07;;;;;;;11.90;3.03;;;26.40;99.40;;;;;;5079563;28;20051;-69
2023/06/26 06:14:36;;;;;;;12.52;2.95;;;26.20;98.80;;;;;;5076498;28;20478;-71
2023/06/26 06:17:01;;;;;;;13.07;3.00;;;25.80;99.60;;;;;;5084153;28;20460;-71
2023/06/26 06:19:27;;;;;;;11.63;3.13;;;25.80;99.50;;;;;;5075230;28;20036;-70
2023/06/26 06:21:53;;;;;;;14.95;4.20;;;25.90;99.10;;;;;;5071222;28;20349;-69
2023/06/26 06:24:19;;;;;;;12.35;4.05;;;26.20;98.80;;;;;;5071586;28;20078;-67
2023/06/26 06:26:45;;;;;;;10.10;3.60;;;26.50;97.80;;;;;;5074283;28;20035;-70
2023/06/26 06:29:10;;;;;;;10.93;3.03;;;26.30;97.70;;;;;;5073712;28;20100;-71
2023/06/26 06:31:36;;;;;;;12.93;2.80;;;26.10;98.10;;;;;;5071750;28;20114;-69
2023/06/26 06:34:02;;;;;;;8.27;2.15;;;26.50;97.30;;;;;;5071736;28;20048;-71
2023/06/26 06:36:27;;;;;;;7.88;1.80;;;27.00;96.10;;;;;;5071942;28;20052;-68
2023/06/26 06:38:57;;;;;;;7.38;2.20;;;27.50;95.40;;;;;;5071701;28;20024;-71
2023/06/26 06:41:23;;;;;;;9.88;1.98;;;27.90;94.30;;;;;;5069068;28;20095;-70
2023/06/26 06:43:49;;;;;;;6.72;2.40;;;28.10;93.80;;;;;;5069762;28;20029;-69
2023/06/26 06:46:14;;;;;;;7.57;2.05;;;28.30;93.30;;;;;;5068572;28;20082;-69
2023/06/26 06:48:40;;;;;;;8.70;2.05;;;28.40;92.90;;;;;;5062711;28;20051;-70
2023/06/26 06:51:06;;;;;;;7.75;1.90;;;28.20;93.20;;;;;;5069488;28;20021;-72
2023/06/26 06:53:31;;;;;;;9.35;2.10;;;28.30;93.00;;;;;;5068601;28;20189;-69
2023/06/26 06:55:57;;;;;;;7.25;1.95;;;28.50;92.70;;;;;;5069822;28;20024;-70
2023/06/26 06:58:22;;;;;;;4.75;1.80;;;28.90;92.10;;;;;;5069427;28;20128;-69
2023/06/26 07:00:48;;;;;;;9.38;1.90;;;28.90;91.60;;;;;;5071498;28;20099;-69
2023/06/26 07:03:14;;;;;;;9.43;2.00;;;28.90;91.40;;;;;;5071353;28;20086;-71
2023/06/26 07:05:44;;;;;;;8.15;1.85;;;29.10;91.40;;;;;;5064565;28;20040;-70
2023/06/26 07:08:10;;;;;;;9.85;2.05;;;29.40;90.90;;;;;;5073002;28;20043;-70
2023/06/26 07:10:36;;;;;;;7.18;2.08;;;29.60;90.70;;;;;;5071514;28;20024;-71
2023/06/26 07:13:01;;;;;;;8.80;1.90;;;29.70;90.30;;;;;;5069083;28;20029;-70
2023/06/26 07:15:27;;;;;;;7.45;1.75;;;30.00;89.50;;;;;;5071207;28;20104;-70
2023/06/26 07:17:53;;;;;;;7.20;1.67;;;30.10;89.10;;;;;;5071250;28;20028;-68
2023/06/26 07:20:18;;;;;;;8.50;2.08;;;30.00;88.70;;;;;;5067709;28;20051;-69
2023/06/26 07:22:47;;;;;;;9.38;1.80;;;30.00;88.80;;;;;;5071465;28;20100;-69
2023/06/26 07:25:29;;;;;;;7.47;2.00;;;30.30;88.00;;;;;;5070287;28;20044;-70
2023/06/26 07:27:54;;;;;;;6.30;1.45;;;30.00;87.70;;;;;;5068166;28;20392;-69
2023/06/26 07:30:20;;;;;;;10.68;1.90;;;29.60;88.00;;;;;;5074852;28;20074;-69
2023/06/26 07:32:46;;;;;;;6.28;1.92;;;29.60;87.90;;;;;;5075099;28;20025;-70
2023/06/26 07:35:11;;;;;;;5.93;1.48;;;29.50;88.10;;;;;;5074804;28;20052;-69
2023/06/26 07:37:38;;;;;;;7.82;1.65;;;29.40;88.30;;;;;;5075289;28;20077;-70
2023/06/26 07:40:04;;;;;;;9.82;1.98;;;29.30;88.10;;;;;;5074156;28;20093;-70
2023/06/26 07:42:29;;;;;;;8.43;1.77;;;29.00;88.50;;;;;;5072657;28;20099;-69
2023/06/26 07:44:55;;;;;;;10.18;1.70;;;28.70;89.00;;;;;;5074824;28;20456;-68
2023/06/26 07:47:20;;;;;;;5.50;2.10;;;28.60;89.80;;;;;;5070852;28;20028;-68
2023/06/26 07:49:46;;;;;;;8.27;1.90;;;28.80;89.70;;;;;;5073000;28;20032;-68
2023/06/26 07:52:12;;;;;;;9.43;2.00;;;28.60;89.80;;;;;;5071735;28;20033;-69
2023/06/26 07:54:37;;;;;;;6.25;1.55;;;28.30;90.10;;;;;;5074855;28;20040;-68
2023/06/26 07:57:06;;;;;;;8.73;2.03;;;28.20;90.30;;;;;;5073383;28;20369;-69
2023/06/26 07:59:33;;;;;;;8.18;1.73;;;28.10;90.40;;;;;;5074730;28;20565;-70
2023/06/26 08:01:59;;;;;;;8.90;1.77;;;28.00;90.70;;;;;;5062034;28;20029;-70
2023/06/26 08:04:26;;;;;;;7.30;1.77;;;27.70;90.60;;;;;;5054779;28;20029;-69
2023/06/26 08:06:53;;;;;;;8.93;2.08;;;27.30;91.00;;;;;;5054458;28;20033;-69
2023/06/26 08:09:21;;;;;;;9.02;2.00;;;27.00;91.50;;;;;;5054424;28;20108;-69
2023/06/26 08:11:47;;;;;;;5.68;1.63;;;26.90;91.60;;;;;;5054731;28;20036;-68
2023/06/26 08:14:13;;;;;;;7.43;1.70;;;26.90;91.60;;;;;;5054246;28;20032;-70
2023/06/26 08:16:39;;;;;;;8.50;1.85;;;26.90;91.70;;;;;;5063201;28;20024;-70
2023/06/26 08:19:05;;;;;;;10.40;2.20;;;27.00;91.80;;;;;;5074304;28;20040;-70
2023/06/26 08:21:31;;;;;;;12.05;2.10;;;27.10;91.60;;;;;;5074230;28;20105;-69
2023/06/26 08:23:56;;;;;;;6.25;1.77;;;27.40;91.40;;;;;;5074159;28;20033;-70
2023/06/26 08:26:22;;;;;;;4.75;1.25;;;27.70;91.00;;;;;;5074071;28;20116;-70
2023/06/26 08:28:47;;;;;;;9.68;1.70;;;28.20;90.20;;;;;;5073645;28;20025;-69
2023/06/26 08:31:13;;;;;;;6.07;1.60;;;28.70;89.40;;;;;;5065136;28;20021;-69
2023/06/26 08:33:38;;;;;;;5.00;1.58;;;29.10;88.40;;;;;;5054013;28;20044;-68
2023/06/26 08:36:04;;;;;;;5.22;1.70;;;29.50;87.40;;;;;;5053975;28;20448;-71
2023/06/26 08:38:30;;;;;;;6.15;1.52;;;30.20;86.00;;;;;;5058396;28;20044;-70
2023/06/26 08:40:55;;;;;;;6.20;1.80;;;30.60;84.90;;;;;;5075084;28;20029;-71
2023/06/26 08:43:21;;;;;;;6.43;1.48;;;30.70;83.70;;;;;;5077193;28;20158;-69
2023/06/26 08:45:51;;;;;;;6.82;1.85;;;30.90;83.20;;;;;;5073214;28;20032;-69
2023/06/26 08:48:17;;;;;;;6.25;1.80;;;31.30;82.60;;;;;;5074063;28;20032;-69
2023/06/26 08:50:43;;;;;;;7.78;1.85;;;31.70;81.30;;;;;;5073886;28;20033;-68
2023/06/26 08:53:27;;;;;;;9.70;1.90;;;31.80;81.20;;;;;;5072505;28;20103;-70
2023/06/26 08:55:53;;;;;;;4.97;1.58;;;31.70;81.00;;;;;;5073770;28;20071;-69
2023/06/26 08:58:19;;;;;;;8.25;2.00;;;32.00;80.60;;;;;;5073469;28;20028;-70
2023/06/26 09:00:45;;;;;;;12.75;2.08;;;32.20;79.70;;;;;;5073777;28;20052;-71
2023/06/26 09:03:12;;;;;;;6.95;1.83;;;32.40;79.50;;;;;;5073467;28;20477;-68
2023/06/26 09:05:38;;;;;;;6.43;2.00;;;32.80;78.60;;;;;;5070972;28;20056;-69
2023/06/26 09:08:04;;;;;;;6.68;1.92;;;32.80;78.00;;;;;;5054121;28;20063;-69
2023/06/26 09:10:29;;;;;;;5.70;1.65;;;32.70;78.00;;;;;;5053878;28;20029;-70
2023/06/26 09:12:58;;;;;;;8.65;1.95;;;33.00;77.10;;;;;;5053725;28;20036;-71
2023/06/26 09:15:24;;;;;;;5.35;1.80;;;33.20;76.60;;;;;;5070310;28;20476;-70
2023/06/26 09:17:50;;;;;;;9.10;1.90;;;33.20;76.40;;;;;;5073459;28;20039;-70
2023/06/26 09:20:15;;;;;;;7.57;1.90;;;33.70;76.10;;;;;;5067574;28;20040;-69
2023/06/26 09:22:43;;;;;;;8.43;1.60;;;34.10;75.30;;;;;;5053064;28;20033;-69
2023/06/26 09:25:09;;;;;;;5.85;1.50;;;34.20;74.90;;;;;;5078526;28;20029;-69
2023/06/26 09:27:36;;;;;;;8.82;1.73;;;34.40;74.40;;;;;;5072041;28;20756;-71
2023/06/26 09:30:09;;;;;;;9.55;1.90;;;34.40;74.40;;;;;;5071804;28;20031;-70
2023/06/26 09:32:36;;;;;;;7.70;2.00;;;34.50;73.70;;;;;;5073076;28;20035;-70
2023/06/26 09:35:03;;;;;;;2.83;1.73;;;34.30;73.90;;;;;;5072962;28;20059;-69
2023/06/26 09:37:28;;;;;;;6.28;1.83;;;34.20;73.80;;;;;;5053698;28;20087;-68
2023/06/26 09:39:54;;;;;;;7.20;1.95;;;34.20;73.80;;;;;;5059386;28;20464;-69
2023/06/26 09:42:20;;;;;;;5.88;1.90;;;34.30;73.30;;;;;;5087512;28;20055;-70
2023/06/26 09:44:46;;;;;;;4.53;1.73;;;34.00;73.00;;;;;;5092607;28;20031;-70
2023/06/26 09:47:12;;;;;;;9.50;1.95;;;33.70;73.40;;;;;;5093291;28;20035;-69
2023/06/26 09:49:44;;;;;;;5.03;1.65;;;33.50;73.70;;;;;;5087356;28;20032;-70
2023/06/26 09:52:16;;;;;;;8.50;1.85;;;33.50;73.70;;;;;;5071871;28;20353;-70
2023/06/26 09:54:43;;;;;;;6.63;1.77;;;33.50;73.40;;;;;;5058100;28;20028;-69
2023/06/26 09:57:10;;;;;;;5.18;1.67;;;33.40;73.50;;;;;;5085748;28;20043;-69
2023/06/26 09:59:42;;;;;;;8.07;1.95;;;33.20;73.60;;;;;;5068722;28;20044;-69
2023/06/26 10:02:08;;;;;;;;;;;32.90;73.70;;;;;;5072137;28;20428;-70
2023/06/26 10:04:34;;;;;;;11.43;2.03;;;33.00;74.10;;;;;;5065756;28;19958;-70
2023/06/26 10:07:04;;;;;;;5.95;1.80;;;33.10;74.10;;;;;;5078038;28;20020;-71
2023/06/26 10:09:32;;;;;;;10.75;2.00;;;33.10;73.80;;;;;;5078094;28;20068;-70
2023/06/26 10:12:04;;;;;;;5.65;1.65;;;33.00;74.00;;;;;;5075511;28;20115;-68
2023/06/26 10:14:46;;;;;;;10.90;2.25;;;32.80;73.90;;;;;;5064770;28;20027;-70
2023/06/26 10:17:24;;;;;;;5.65;1.52;;;32.60;74.00;;;;;;5071377;28;20043;-69
2023/06/26 10:19:52;;;;;;;8.18;2.08;;;32.40;74.50;;;;;;5069940;28;20040;-69
2023/06/26 10:22:20;;;;;;;7.07;1.67;;;32.50;74.50;;;;;;5071871;28;20036;-68
2023/06/26 10:24:48;;;;;;;7.82;1.70;;;33.00;73.90;;;;;;5057973;28;20068;-69
2023/06/26 10:27:15;;;;;;;7.07;1.83;;;33.00;73.80;;;;;;5067080;28;20040;-70
2023/06/26 10:29:44;;;;;;;7.28;1.80;;;32.80;73.90;;;;;;5069405;28;20492;-68
2023/06/26 10:32:12;;;;;;;6.68;1.67;;;32.70;74.50;;;;;;5055079;28;20036;-70
2023/06/26 10:34:38;;;;;;;9.35;1.80;;;32.90;74.00;;;;;;5046536;28;20052;-70
2023/06/26 10:37:04;;;;;;;11.75;1.77;;;33.30;73.20;;;;;;5070198;28;20119;-69
2023/06/26 10:39:50;;;;;;;7.60;1.85;;;33.50;72.90;;;;;;5059664;28;20047;-70
2023/06/26 10:42:17;;;;;;;8.63;1.73;;;33.50;72.90;;;;;;5064067;28;20111;-69
2023/06/26 10:44:44;;;;;;;11.00;1.73;;;33.70;72.00;;;;;;5080832;28;20043;-70
2023/06/26 10:47:11;;;;;;;9.50;1.80;;;33.80;72.50;;;;;;5077899;28;20066;-69
2023/06/26 10:49:39;;;;;;;8.82;1.80;;;34.00;71.60;;;;;;5088143;28;20094;-68
2023/06/26 10:52:05;;;;;;;7.20;2.05;;;34.00;71.50;;;;;;5062466;28;20052;-70
2023/06/26 10:54:32;;;;;;;9.35;1.80;;;34.00;72.00;;;;;;5061247;28;20451;-70
2023/06/26 10:56:58;;;;;;;6.95;2.00;;;33.70;71.90;;;;;;5085834;28;20023;-69
2023/06/26 10:59:28;;;;;;;6.22;1.77;;;33.40;72.30;;;;;;5073910;28;20036;-68
2023/06/26 11:01:58;;;;;;;8.02;1.90;;;32.60;73.10;;;;;;5063548;28;20083;-69
2023/06/26 11:04:47;;;;;;;8.20;1.92;;;31.80;74.10;;;;;;5072355;28;20039;-70
2023/06/26 11:07:21;;;;;;;7.57;1.60;;;30.90;75.30;;;;;;5089156;28;20034;-69
2023/06/26 11:10:23;;;;;;;7.60;1.40;;;30.30;75.90;;;;;;5060617;28;20106;-71
2023/06/26 11:12:49;;;;;;;;;;;29.80;77.20;;;;;;5077772;28;20032;-70
2023/06/26 11:15:16;;;;;;;6.47;1.65;;;29.80;77.70;;;;;;5075889;28;19915;-70
2023/06/26 11:17:43;;;;;;;4.53;1.30;;;30.20;76.70;;;;;;5079536;28;20043;-71
2023/06/26 11:20:13;;;;;;;6.85;1.75;;;30.30;76.80;;;;;;5087265;28;20043;-70
2023/06/26 11:22:44;;;;;;;9.27;1.40;;;30.10;77.20;;;;;;5085835;28;20030;-70
2023/06/26 11:25:11;;;;;;;5.25;1.50;;;30.00;77.60;;;;;;5078866;28;20373;-69
2023/06/26 11:27:43;;;;;;;7.35;1.80;;;29.70;78.00;;;;;;5069714;28;20043;-70
2023/06/26 11:30:11;;;;;;;8.98;1.85;;;29.30;78.50;;;;;;5087435;28;20035;-70
2023/06/26 11:32:37;;;;;;;8.30;1.90;;;29.00;79.00;;;;;;5068919;28;20583;-69
2023/06/26 11:35:04;;;;;;;5.03;1.45;;;29.30;78.70;;;;;;5069278;28;20512;-70
2023/06/26 11:37:30;;;;;;;6.43;1.77;;;29.70;77.90;;;;;;5082507;28;20040;-70
2023/06/26 11:39:56;;;;;;;4.32;1.48;;;30.30;77.50;;;;;;5052987;28;20045;-70
2023/06/26 11:42:23;;;;;;;8.43;1.67;;;30.40;76.80;;;;;;5055182;28;20031;-69
2023/06/26 11:44:49;;;;;;;7.18;1.67;;;30.30;77.20;;;;;;5081163;28;20391;-70
2023/06/26 11:47:20;;;;;;;7.13;1.70;;;30.00;77.10;;;;;;5084631;28;20032;-70
2023/06/26 11:49:47;;;;;;;4.22;1.45;;;29.60;78.30;;;;;;5056852;28;20036;-69
2023/06/26 11:52:14;;;;;;;9.75;2.03;;;29.70;78.00;;;;;;5056519;28;20041;-70
2023/06/26 11:54:41;;;;;;;7.07;1.45;;;29.70;77.80;;;;;;5078862;28;20036;-70
2023/06/26 11:57:07;;;;;;;6.53;1.70;;;29.50;78.50;;;;;;5074754;28;20103;-70
2023/06/26 11:59:38;;;;;;;7.63;1.80;;;29.30;78.80;;;;;;5072305;28;20164;-69
2023/06/26 12:02:10;;;;;;;6.75;1.60;;;28.80;78.90;;;;;;5061063;28;20064;-69
2023/06/26 12:04:41;;;;;;;5.32;1.98;;;28.30;79.60;;;;;;5056710;28;20045;-69
2023/06/26 12:07:09;;;;;;;6.13;1.50;;;27.80;80.70;;;;;;5062634;28;20029;-69
2023/06/26 12:09:43;;;;;;;5.78;1.67;;;27.90;80.90;;;;;;5093986;28;20107;-69
2023/06/26 12:12:11;;;;;;;4.05;1.42;;;28.20;80.70;;;;;;5078286;28;20032;-70
2023/06/26 12:14:37;;;;;;;3.55;1.63;;;28.20;80.30;;;;;;5070691;28;20044;-69
2023/06/26 12:17:10;;;;;;;7.82;1.67;;;28.50;79.70;;;;;;5049999;28;20123;-70
2023/06/26 12:19:44;;;;;;;6.28;1.50;;;29.10;78.90;;;;;;5067558;28;20043;-69
2023/06/26 12:22:10;;;;;;;4.22;1.67;;;30.00;78.20;;;;;;5076875;28;20025;-70
2023/06/26 12:24:42;;;;;;;4.95;1.77;;;30.40;77.00;;;;;;5079749;28;20029;-70
2023/06/26 12:27:10;;;;;;;5.32;1.73;;;30.00;76.90;;;;;;5071048;28;20099;-69
2023/06/26 12:29:38;;;;;;;8.05;1.70;;;29.50;78.10;;;;;;5072974;28;20366;-69
2023/06/26 12:32:04;;;;;;;8.07;1.77;;;29.60;77.80;;;;;;5076815;28;20031;-69
2023/06/26 12:34:34;;;;;;;8.05;1.90;;;29.70;78.40;;;;;;5059231;28;20045;-70
2023/06/26 12:37:10;;;;;;;7.03;1.27;;;30.10;77.70;;;;;;5076457;28;20036;-70
2023/06/26 12:39:46;;;;;;;8.35;1.60;;;30.50;76.60;;;;;;5083268;28;20044;-69
2023/06/26 12:42:14;;;;;;;8.52;2.20;;;30.70;76.00;;;;;;5061240;28;20044;-69